Time;durP1;ratioP1;P1;durP2;ratioP2;P2;SDS_P1;SDS_P2;PMS_P1;PMS_P2;Temp;Humidity;BMP_temperature;BMP_pressure;BME280_temperature;BME280_humidity;BME280_pressure;Samples;Min_cycle;Max_cycle;Signal;HPM_P1;HPM_P2
2022/12/06 00:00:53;;;;;;;;;;;5.00;99.90;;;;;;5059838;28;20368;-73
2022/12/06 00:03:18;;;;;;;;;;;5.30;99.90;;;;;;5059253;28;19927;-76
2022/12/06 00:05:44;;;;;;;;;;;5.30;99.90;;;;;;5057307;28;19924;-75
2022/12/06 00:08:09;;;;;;;;;;;5.00;99.90;;;;;;5062783;28;19924;-74
2022/12/06 00:10:35;;;;;;;;;;;5.90;99.90;;;;;;5059479;28;20003;-74
2022/12/06 00:13:02;;;;;;;;;;;5.00;99.90;;;;;;5057527;28;20053;-74
2022/12/06 00:15:28;;;;;;;;;;;5.00;99.90;;;;;;5059064;28;19921;-76
2022/12/06 00:17:54;;;;;;;;;;;5.80;99.90;;;;;;5040147;28;19921;-73
2022/12/06 00:20:19;;;;;;;;;;;5.00;99.90;;;;;;5059440;28;19920;-73
2022/12/06 00:22:45;;;;;;;;;;;5.20;99.90;;;;;;5062513;28;19925;-73
2022/12/06 00:25:10;;;;;;;;;;;4.90;99.90;;;;;;5056324;28;20384;-73
2022/12/06 00:27:36;;;;;;;;;;;5.00;99.90;;;;;;5040850;28;20014;-73
2022/12/06 00:30:02;;;;;;;;;;;5.00;99.90;;;;;;5052657;28;19922;-73
2022/12/06 00:32:28;;;;;;;;;;;5.00;99.90;;;;;;5064568;28;20019;-73
2022/12/06 00:34:54;;;;;;;;;;;5.00;99.90;;;;;;5057831;28;20436;-74
2022/12/06 00:37:20;;;;;;;;;;;5.00;99.90;;;;;;5040247;28;20279;-74
2022/12/06 00:39:45;;;;;;;;;;;5.00;99.90;;;;;;5065807;28;19925;-74
2022/12/06 00:42:11;;;;;;;;;;;5.00;99.90;;;;;;5057359;28;20402;-74
2022/12/06 00:44:36;;;;;;;;;;;6.10;99.90;;;;;;5065747;28;19947;-73
2022/12/06 00:47:02;;;;;;;;;;;5.40;99.90;;;;;;5056411;28;19921;-73
2022/12/06 00:49:28;;;;;;;;;;;5.00;99.90;;;;;;5040068;28;19920;-73
2022/12/06 00:51:53;;;;;;;;;;;5.40;99.90;;;;;;5060203;28;20417;-74
2022/12/06 00:54:20;;;;;;;;;;;4.90;99.90;;;;;;5058167;28;19947;-73
2022/12/06 00:56:46;;;;;;;;;;;4.90;99.90;;;;;;5055204;28;19974;-73
2022/12/06 00:59:11;;;;;;;;;;;4.90;99.90;;;;;;5047375;28;19921;-73
2022/12/06 01:01:37;;;;;;;;;;;5.30;99.90;;;;;;5036880;28;20292;-74
2022/12/06 01:04:04;;;;;;;;;;;4.90;99.90;;;;;;5040859;28;19924;-73
2022/12/06 01:06:30;;;;;;;;;;;4.90;99.90;;;;;;5052880;28;19944;-74
2022/12/06 01:09:00;;;;;;;;;;;4.90;99.90;;;;;;5063298;28;19920;-73
2022/12/06 01:11:27;;;;;;;;;;;4.90;99.90;;;;;;5053200;28;19928;-74
2022/12/06 01:13:56;;;;;;;;;;;5.00;99.90;;;;;;5038795;28;19967;-75
2022/12/06 01:16:24;;;;;;;;;;;4.90;99.90;;;;;;5061413;28;19960;-74
2022/12/06 01:18:54;;;;;;;;;;;4.90;99.90;;;;;;5057187;28;19935;-74
2022/12/06 01:21:20;;;;;;;;;;;4.90;99.90;;;;;;5057100;28;19979;-74
2022/12/06 01:23:46;;;;;;;;;;;5.60;99.90;;;;;;5057920;28;20824;-73
2022/12/06 01:26:16;;;;;;;;;;;4.80;99.90;;;;;;5050956;28;19920;-74
2022/12/06 01:28:45;;;;;;;;;;;4.80;99.90;;;;;;5056504;28;20314;-74
2022/12/06 01:31:10;;;;;;;;;;;4.80;99.90;;;;;;5047839;28;19970;-73
2022/12/06 01:33:36;;;;;;;;;;;5.00;99.90;;;;;;5061466;28;19920;-73
2022/12/06 01:36:02;;;;;;;;;;;4.90;99.90;;;;;;5055036;28;20011;-74
2022/12/06 01:38:27;;;;;;;;;;;4.90;99.90;;;;;;5048943;28;20376;-73
2022/12/06 01:40:53;;;;;;;;;;;4.80;99.90;;;;;;5061355;28;19920;-77
2022/12/06 01:43:29;;;;;;;;;;;4.80;99.90;;;;;;5038383;28;20038;-74
2022/12/06 01:45:55;;;;;;;;;;;3.70;99.90;;;;;;5039900;28;19920;-74
2022/12/06 01:48:24;;;;;;;;;;;4.80;99.90;;;;;;5048727;28;20320;-75
2022/12/06 01:50:49;;;;;;;;;;;4.80;99.90;;;;;;5060079;28;20007;-74
2022/12/06 01:53:15;;;;;;;;;;;4.80;99.90;;;;;;5040938;28;20015;-74
2022/12/06 01:55:41;;;;;;;;;;;4.80;99.90;;;;;;5052895;28;19925;-73
2022/12/06 01:58:10;;;;;;;;;;;4.80;99.90;;;;;;5059588;28;19917;-74
2022/12/06 02:00:35;;;;;;;;;;;4.70;99.90;;;;;;5055548;28;19920;-73
2022/12/06 02:03:01;;;;;;;;;;;4.80;99.90;;;;;;5055984;28;20417;-73
2022/12/06 02:05:28;;;;;;;;;;;4.80;99.90;;;;;;5056927;28;20423;-74
2022/12/06 02:07:55;;;;;;;;;;;5.40;99.90;;;;;;5059234;28;19921;-74
2022/12/06 02:10:21;;;;;;;;;;;4.80;99.90;;;;;;5068190;28;19935;-74
2022/12/06 02:12:51;;;;;;;;;;;4.80;99.90;;;;;;5062067;28;19920;-74
2022/12/06 02:15:17;;;;;;;;;;;4.80;99.90;;;;;;5068661;28;19943;-74
2022/12/06 02:17:48;;;;;;;;;;;4.70;99.90;;;;;;5060917;28;20364;-74
2022/12/06 02:20:40;;;;;;;;;;;4.80;99.90;;;;;;5057087;28;19924;-72
2022/12/06 02:23:13;;;;;;;;;;;4.80;99.90;;;;;;5061122;28;19928;-73
2022/12/06 02:25:44;;;;;;;;;;;4.70;99.90;;;;;;5062489;28;19928;-73
2022/12/06 02:28:14;;;;;;;;;;;4.80;99.90;;;;;;5058976;28;19921;-73
2022/12/06 02:31:01;;;;;;;;;;;5.20;99.90;;;;;;5065762;28;20314;-73
2022/12/06 02:33:33;;;;;;;;;;;4.70;99.90;;;;;;5062225;28;19967;-74
2022/12/06 02:36:06;;;;;;;;;;;4.70;99.90;;;;;;5064070;28;19973;-73
2022/12/06 02:38:33;;;;;;;;;;;4.70;99.90;;;;;;5061196;28;19924;-74
2022/12/06 02:41:02;;;;;;;;;;;4.70;99.90;;;;;;5047594;28;19927;-74
2022/12/06 02:43:32;;;;;;;;;;;4.80;99.90;;;;;;5060741;28;19920;-73
2022/12/06 02:45:59;;;;;;;;;;;4.70;99.90;;;;;;5062326;28;19921;-73
2022/12/06 02:48:25;;;;;;;;;;;4.40;99.90;;;;;;5060803;28;20339;-75
2022/12/06 02:51:03;;;;;;;;;;;4.70;99.90;;;;;;5064626;28;19923;-75
2022/12/06 02:53:31;;;;;;;;;;;4.70;99.90;;;;;;5061161;28;19947;-73
2022/12/06 02:55:57;;;;;;;;;;;4.60;99.90;;;;;;5063985;28;19916;-74
2022/12/06 02:58:23;;;;;;;;;;;4.60;99.90;;;;;;5058825;28;19931;-73
2022/12/06 03:01:00;;;;;;;;;;;4.60;99.90;;;;;;5059978;28;19924;-74
2022/12/06 03:03:44;;;;;;;;;;;4.60;99.90;;;;;;5060133;28;19921;-74
2022/12/06 03:06:36;;;;;;;;;;;4.60;99.90;;;;;;5062887;28;19928;-75
2022/12/06 03:09:06;;;;;;;;;;;4.60;99.90;;;;;;5056126;28;20292;-74
2022/12/06 03:11:43;;;;;;;;;;;4.60;99.90;;;;;;5066457;28;19924;-74
2022/12/06 03:14:13;;;;;;;;;;;4.60;99.90;;;;;;5061898;28;19978;-74
2022/12/06 03:16:46;;;;;;;;;;;4.60;99.90;;;;;;5062312;28;19990;-73
2022/12/06 03:19:27;;;;;;;;;;;4.60;99.90;;;;;;5055831;28;20000;-74
2022/12/06 03:21:59;;;;;;;;;;;4.60;99.90;;;;;;5044878;28;19924;-74
2022/12/06 03:24:26;;;;;;;;;;;4.60;99.90;;;;;;5044245;28;20537;-73
2022/12/06 03:26:53;;;;;;;;;;;5.10;99.90;;;;;;5056293;28;19927;-74
2022/12/06 03:29:20;;;;;;;;;;;4.60;99.90;;;;;;5065380;28;20477;-74
2022/12/06 03:31:46;;;;;;;;;;;4.60;99.90;;;;;;5043216;28;19956;-74
2022/12/06 03:34:18;;;;;;;;;;;4.50;99.90;;;;;;5055919;28;19925;-73
2022/12/06 03:36:46;;;;;;;;;;;4.60;99.90;;;;;;5061387;28;19924;-74
2022/12/06 03:39:13;;;;;;;;;;;4.70;99.90;;;;;;5042336;28;20318;-76
2022/12/06 03:41:46;;;;;;;;;;;5.20;99.90;;;;;;5052371;28;19927;-74
2022/12/06 03:44:11;;;;;;;;;;;4.70;99.90;;;;;;5054638;28;20589;-73
2022/12/06 03:46:40;;;;;;;;;;;4.60;99.90;;;;;;5066707;28;19924;-74
2022/12/06 03:49:16;;;;;;;;;;;4.70;99.90;;;;;;5058523;28;19931;-74
2022/12/06 03:51:42;;;;;;;;;;;4.70;99.90;;;;;;5039781;28;20315;-74
2022/12/06 03:54:08;;;;;;;;;;;4.70;99.90;;;;;;5062700;28;19927;-74
2022/12/06 03:56:36;;;;;;;;;;;4.60;99.90;;;;;;5047349;28;19928;-74
2022/12/06 03:59:05;;;;;;;;;;;4.60;99.90;;;;;;5060380;28;20029;-75
2022/12/06 04:01:34;;;;;;;;;;;4.60;99.90;;;;;;5054993;28;19935;-74
2022/12/06 04:04:03;;;;;;;;;;;4.50;99.90;;;;;;5039024;28;19925;-73
2022/12/06 04:06:32;;;;;;;;;;;4.30;99.90;;;;;;5065841;28;19940;-73
2022/12/06 04:11:46;;;;;;;;;;;4.60;99.90;;;;;;5060433;28;20390;-75
2022/12/06 04:14:11;;;;;;;;;;;6.80;99.90;;;;;;5058726;28;20016;-76
2022/12/06 04:19:21;;;;;;;;;;;4.50;99.90;;;;;;5062351;28;19924;-76
2022/12/06 04:24:31;;;;;;;;;;;4.40;99.90;;;;;;5050637;28;19921;-77
2022/12/06 04:28:40;;;;;;;;;;;4.40;99.90;;;;;;5055826;28;20289;-74
2022/12/06 04:40:42;;;;;;;;;;;4.30;99.90;;;;;;5057158;28;19920;-77
2022/12/06 04:45:52;;;;;;;;;;;4.20;99.90;;;;;;5058771;28;19924;-75
2022/12/06 04:48:18;;;;;;;;;;;5.90;99.90;;;;;;5055965;28;19928;-76
2022/12/06 04:50:50;;;;;;;;;;;5.50;99.90;;;;;;5047235;28;19920;-76
2022/12/06 04:53:15;;;;;;;;;;;4.10;99.90;;;;;;5057002;28;19920;-75
2022/12/06 04:55:47;;;;;;;;;;;4.10;99.90;;;;;;5059479;28;19926;-72
2022/12/06 04:58:12;;;;;;;;;;;4.00;99.90;;;;;;5057826;28;19921;-73
2022/12/06 05:00:46;;;;;;;;;;;4.00;99.90;;;;;;5056551;28;19928;-76
2022/12/06 05:03:13;;;;;;;;;;;4.00;99.90;;;;;;5040026;28;19920;-76
2022/12/06 05:05:38;;;;;;;;;;;5.30;99.90;;;;;;5060466;28;20035;-75
2022/12/06 05:08:05;;;;;;;;;;;3.80;99.90;;;;;;5056273;28;20043;-74
2022/12/06 05:10:30;;;;;;;;;;;3.70;99.90;;;;;;5040953;28;19924;-76
2022/12/06 05:12:56;;;;;;;;;;;5.30;99.90;;;;;;5037636;28;20371;-77
2022/12/06 05:15:22;;;;;;;;;;;3.60;99.90;;;;;;5061907;28;20031;-75
2022/12/06 05:17:49;;;;;;;;;;;3.60;99.90;;;;;;5054285;28;19928;-75
2022/12/06 05:20:14;;;;;;;;;;;3.60;99.90;;;;;;5065077;28;19927;-75
2022/12/06 05:22:41;;;;;;;;;;;3.60;99.90;;;;;;5055792;28;19929;-75
2022/12/06 05:25:07;;;;;;;;;;;3.60;99.90;;;;;;5058773;28;19951;-73
2022/12/06 05:27:32;;;;;;;;;;;3.60;99.90;;;;;;5058442;28;19967;-75
2022/12/06 05:29:58;;;;;;;;;;;3.60;99.90;;;;;;5057292;28;20448;-76
2022/12/06 05:32:23;;;;;;;;;;;3.60;99.90;;;;;;5055637;28;19924;-76
2022/12/06 05:34:50;;;;;;;;;;;3.70;99.90;;;;;;5038392;28;20389;-75
2022/12/06 05:37:16;;;;;;;;;;;3.70;99.90;;;;;;5058876;28;19920;-75
2022/12/06 05:39:41;;;;;;;;;;;4.90;99.90;;;;;;5060086;28;19920;-75
2022/12/06 05:42:07;;;;;;;;;;;3.70;99.90;;;;;;5036575;28;19966;-75
2022/12/06 05:44:36;;;;;;;;;;;3.70;99.90;;;;;;5061882;28;19921;-76
2022/12/06 05:47:12;;;;;;;;;;;5.50;99.90;;;;;;5056499;28;19962;-76
2022/12/06 05:49:37;;;;;;;;;;;3.70;99.90;;;;;;5061419;28;20016;-74
2022/12/06 05:52:03;;;;;;;;;;;3.70;99.90;;;;;;5064313;28;20026;-76
2022/12/06 05:54:28;;;;;;;;;;;3.70;99.90;;;;;;5065781;28;19921;-75
2022/12/06 05:56:54;;;;;;;;;;;3.60;99.90;;;;;;5036490;28;19932;-76
2022/12/06 05:59:22;;;;;;;;;;;3.70;99.90;;;;;;5044746;28;19983;-76
2022/12/06 06:01:49;;;;;;;;;;;5.30;99.90;;;;;;5052946;28;19963;-76
2022/12/06 06:04:14;;;;;;;;;;;3.80;99.90;;;;;;5064721;28;19921;-74
2022/12/06 06:06:40;;;;;;;;;;;3.40;99.90;;;;;;5061462;28;20276;-77
2022/12/06 06:09:05;;;;;;;;;;;5.60;99.90;;;;;;5063422;28;19920;-75
2022/12/06 06:11:31;;;;;;;;;;;3.40;99.90;;;;;;5062912;28;19936;-75
2022/12/06 06:13:56;;;;;;;;;;;5.00;99.90;;;;;;5061638;28;19920;-74
2022/12/06 06:16:22;;;;;;;;;;;3.30;99.90;;;;;;5064829;28;19966;-75
2022/12/06 06:18:48;;;;;;;;;;;3.50;99.90;;;;;;5059891;28;19921;-76
2022/12/06 06:21:13;;;;;;;;;;;3.50;99.90;;;;;;5066467;28;20407;-76
2022/12/06 06:23:39;;;;;;;;;;;3.50;99.90;;;;;;5058680;28;20003;-74
2022/12/06 06:26:08;;;;;;;;;;;5.30;99.90;;;;;;5059314;28;19936;-75
2022/12/06 06:28:37;;;;;;;;;;;3.40;99.90;;;;;;5062133;28;20323;-75
2022/12/06 06:31:05;;;;;;;;;;;3.30;99.90;;;;;;5060894;28;19920;-75
2022/12/06 06:33:31;;;;;;;;;;;3.30;99.90;;;;;;5061060;28;19916;-76
2022/12/06 06:35:56;;;;;;;;;;;4.20;99.90;;;;;;5061308;28;19920;-76
2022/12/06 06:38:22;;;;;;;;;;;2.60;99.90;;;;;;5063134;28;19970;-74
2022/12/06 06:40:47;;;;;;;;;;;3.50;99.90;;;;;;5059674;28;19920;-75
2022/12/06 06:43:22;;;;;;;;;;;4.80;99.90;;;;;;5059791;28;19921;-75
2022/12/06 06:45:55;;;;;;;;;;;3.20;99.90;;;;;;5060935;28;19966;-75
2022/12/06 06:48:21;;;;;;;;;;;3.20;99.90;;;;;;5056462;28;19924;-75
2022/12/06 06:50:47;;;;;;;;;;;3.20;99.90;;;;;;5069535;28;19921;-75
2022/12/06 06:53:13;;;;;;;;;;;3.60;99.90;;;;;;5057991;28;19927;-74
2022/12/06 06:55:38;;;;;;;;;;;3.20;99.90;;;;;;5057912;28;19931;-75
2022/12/06 06:58:04;;;;;;;;;;;3.30;99.90;;;;;;5050567;28;19934;-75
2022/12/06 07:00:30;;;;;;;;;;;3.20;99.90;;;;;;5061912;28;19981;-76
2022/12/06 07:02:56;;;;;;;;;;;3.20;99.90;;;;;;5060007;28;19974;-76
2022/12/06 07:05:22;;;;;;;;;;;3.00;99.90;;;;;;5059074;28;19920;-74
2022/12/06 07:07:48;;;;;;;;;;;3.10;99.90;;;;;;5043927;28;19926;-74
2022/12/06 07:10:13;;;;;;;;;;;3.10;99.90;;;;;;5059278;28;19989;-74
2022/12/06 07:12:39;;;;;;;;;;;3.00;99.90;;;;;;5059626;28;19920;-77
2022/12/06 07:15:04;;;;;;;;;;;3.00;99.90;;;;;;5060484;28;19921;-75
2022/12/06 07:17:30;;;;;;;;;;;3.00;99.90;;;;;;4346139;28;10000755;-76
2022/12/06 07:19:56;;;;;;;;;;;2.90;99.90;;;;;;5052223;28;19977;-75
2022/12/06 07:22:21;;;;;;;;;;;2.90;99.90;;;;;;5057935;28;19923;-76
2022/12/06 07:24:47;;;;;;;;;;;2.90;99.90;;;;;;5059999;28;19971;-77
2022/12/06 07:27:12;;;;;;;;;;;2.90;99.90;;;;;;5058859;28;20027;-77
2022/12/06 07:29:38;;;;;;;;;;;2.90;99.90;;;;;;5052655;28;19925;-78
2022/12/06 07:32:05;;;;;;;;;;;2.90;99.90;;;;;;5056720;28;19920;-75
2022/12/06 07:34:32;;;;;;;;;;;2.90;99.90;;;;;;5057614;28;19924;-78
2022/12/06 07:38:15;;;;;;;;;;;3.40;99.90;;;;;;5160928;27;19915;-76
2022/12/06 07:40:40;;;;;;;;;;;2.10;99.90;;;;;;5147255;27;20010;-75
2022/12/06 07:45:52;;;;;;;;;;;4.60;99.90;;;;;;5122894;27;19928;-75
2022/12/06 07:48:19;;;;;;;;;;;2.90;99.90;;;;;;5112537;28;19942;-75
2022/12/06 07:50:46;;;;;;;;;;;2.90;99.90;;;;;;5127012;27;20405;-74
2022/12/06 07:53:11;;;;;;;;;;;2.80;99.90;;;;;;5144385;27;20384;-75
2022/12/06 07:55:37;;;;;;;;;;;2.80;99.90;;;;;;5125604;28;19935;-75
2022/12/06 07:58:03;;;;;;;;;;;4.10;99.90;;;;;;5126680;27;19923;-74
2022/12/06 08:00:28;;;;;;;;;;;2.80;99.90;;;;;;5128957;27;19952;-75
2022/12/06 08:02:54;;;;;;;;;;;2.70;99.90;;;;;;5118298;27;19924;-74
2022/12/06 08:05:19;;;;;;;;;;;2.70;99.90;;;;;;5131100;27;20759;-73
2022/12/06 08:07:46;;;;;;;;;;;2.70;99.90;;;;;;5126038;27;19931;-72
2022/12/06 08:10:12;;;;;;;;;;;2.70;99.90;;;;;;5124998;27;19977;-73
2022/12/06 08:12:38;;;;;;;;;;;3.10;99.90;;;;;;5108855;28;19941;-72
2022/12/06 08:15:04;;;;;;;;;;;2.70;99.90;;;;;;5133376;27;19927;-72
2022/12/06 08:17:29;;;;;;;;;;;2.70;99.90;;;;;;5131619;27;19971;-72
2022/12/06 08:19:55;;;;;;;;;;;2.80;99.90;;;;;;5115107;27;19932;-72
2022/12/06 08:22:20;;;;;;;;;;;4.70;99.90;;;;;;5126497;27;19924;-72
2022/12/06 08:24:46;;;;;;;;;;;4.50;99.90;;;;;;5117500;28;20371;-72
2022/12/06 08:27:11;;;;;;;;;;;2.90;99.90;;;;;;5135298;27;20382;-73
2022/12/06 08:29:37;;;;;;;;;;;3.00;99.90;;;;;;5130968;27;20398;-74
2022/12/06 08:32:03;;;;;;;;;;;2.90;99.90;;;;;;5137076;27;19924;-73
2022/12/06 08:34:28;;;;;;;;;;;3.00;99.90;;;;;;5126584;27;20604;-74
2022/12/06 08:36:54;;;;;;;;;;;3.10;99.90;;;;;;5136112;27;19923;-75
2022/12/06 08:39:19;;;;;;;;;;;3.20;99.90;;;;;;5135277;27;19923;-74
2022/12/06 08:41:57;;;;;;;;;;;3.20;99.90;;;;;;5128461;27;19958;-74
2022/12/06 08:44:23;;;;;;;;;;;4.40;99.90;;;;;;5097091;27;19958;-74
2022/12/06 08:46:49;;;;;;;;;;;3.40;99.90;;;;;;5138559;27;19927;-72
2022/12/06 08:49:15;;;;;;;;;;;3.20;99.90;;;;;;5119810;27;20264;-74
2022/12/06 08:51:41;;;;;;;;;;;3.20;99.90;;;;;;5079679;28;20383;-75
2022/12/06 08:54:07;;;;;;;;;;;3.20;99.90;;;;;;5072775;27;19931;-76
2022/12/06 08:56:33;;;;;;;;;;;3.20;99.90;;;;;;5103527;27;19927;-73
2022/12/06 08:58:59;;;;;;;;;;;3.20;99.90;;;;;;5102438;27;20395;-74
2022/12/06 09:01:26;;;;;;;;;;;3.20;99.90;;;;;;5100771;27;20003;-73
2022/12/06 09:03:52;;;;;;;;;;;3.10;99.90;;;;;;5132748;27;20366;-74
2022/12/06 09:06:18;;;;;;;;;;;3.30;99.90;;;;;;5107997;27;19931;-74
2022/12/06 09:08:44;;;;;;;;;;;3.30;99.90;;;;;;5083653;28;19932;-74
2022/12/06 09:11:09;;;;;;;;;;;3.30;99.90;;;;;;5113572;27;19973;-75
2022/12/06 09:13:36;;;;;;;;;;;5.10;99.90;;;;;;5111441;27;19973;-74
2022/12/06 09:16:10;;;;;;;;;;;3.40;99.90;;;;;;5129218;27;20022;-74
2022/12/06 09:18:35;;;;;;;;;;;3.40;99.90;;;;;;5124033;27;19931;-72
2022/12/06 09:21:24;;;;;;;;;;;3.30;99.90;;;;;;5087121;27;19923;-72
2022/12/06 09:23:50;;;;;;;;;;;3.50;99.90;;;;;;5121040;27;19976;-73
2022/12/06 09:26:16;;;;;;;;;;;3.50;99.90;;;;;;5114622;27;19923;-73
2022/12/06 09:28:42;;;;;;;;;;;5.30;99.90;;;;;;5128225;27;19924;-73
2022/12/06 09:31:08;;;;;;;;;;;3.50;99.90;;;;;;5102792;27;19975;-73
2022/12/06 09:33:34;;;;;;;;;;;4.60;99.90;;;;;;5112699;27;20418;-73
2022/12/06 09:36:01;;;;;;;;;;;3.50;99.90;;;;;;5129477;27;20010;-75
2022/12/06 09:38:28;;;;;;;;;;;3.60;99.90;;;;;;5128591;27;20024;-74
2022/12/06 09:41:10;;;;;;;;;;;3.50;99.90;;;;;;5128962;27;20405;-75
2022/12/06 09:43:46;;;;;;;;;;;3.50;99.90;;;;;;5104651;28;19924;-73
2022/12/06 09:46:12;;;;;;;;;;;3.50;99.90;;;;;;5116235;27;20440;-73
2022/12/06 09:48:55;;;;;;;;;;;3.50;99.90;;;;;;5131414;27;19927;-74
2022/12/06 09:51:27;;;;;;;;;;;3.50;99.90;;;;;;5115851;27;19972;-74
2022/12/06 09:54:06;;;;;;;;;;;3.60;99.90;;;;;;5112186;27;20011;-74
2022/12/06 09:56:41;;;;;;;;;;;3.60;99.90;;;;;;5118371;27;19930;-75
2022/12/06 09:59:25;;;;;;;;;;;3.70;99.90;;;;;;5110646;27;19927;-75
2022/12/06 10:02:17;;;;;;;;;;;3.80;99.90;;;;;;5131749;27;20302;-74
2022/12/06 10:04:54;;;;;;;;;;;3.90;99.90;;;;;;5092071;27;19930;-75
2022/12/06 10:07:28;;;;;;;;;;;4.00;99.90;;;;;;5106845;28;19931;-75
2022/12/06 10:10:05;;;;;;;;;;;4.00;99.90;;;;;;5122157;27;20306;-75
2022/12/06 10:12:57;;;;;;;;;;;4.10;99.90;;;;;;5114308;27;19950;-74
2022/12/06 10:15:33;;;;;;;;;;;4.20;99.90;;;;;;5090735;27;20026;-73
2022/12/06 10:18:10;;;;;;;;;;;4.30;99.90;;;;;;5130371;27;19930;-74
2022/12/06 10:20:39;;;;;;;;;;;4.40;99.90;;;;;;5121152;27;19969;-75
2022/12/06 10:23:21;;;;;;;;;;;4.40;99.90;;;;;;5126161;27;19972;-75
2022/12/06 10:26:07;;;;;;;;;;;4.50;99.90;;;;;;5107803;28;19923;-75
2022/12/06 10:28:51;;;;;;;;;;;4.50;99.90;;;;;;5102640;27;19924;-76
2022/12/06 10:31:26;;;;;;;;;;;5.30;99.90;;;;;;5105854;27;20022;-74
2022/12/06 10:33:57;;;;;;;;;;;4.70;99.90;;;;;;5123491;27;19924;-74
2022/12/06 10:36:32;;;;;;;;;;;4.60;99.90;;;;;;5101338;27;19938;-75
2022/12/06 10:39:02;;;;;;;;;;;4.70;99.90;;;;;;5115497;27;19936;-75
2022/12/06 10:41:31;;;;;;;;;;;4.70;99.90;;;;;;5111831;27;20452;-74
2022/12/06 10:44:03;;;;;;;;;;;4.70;99.90;;;;;;5108731;28;19924;-76
2022/12/06 10:47:05;;;;;;;;;;;4.80;99.90;;;;;;5127224;27;20355;-74
2022/12/06 10:49:37;;;;;;;;;;;4.80;99.90;;;;;;5113719;27;20013;-75
2022/12/06 10:52:21;;;;;;;;;;;4.90;99.90;;;;;;5112046;27;19927;-75
2022/12/06 10:54:49;;;;;;;;;;;4.90;99.90;;;;;;5128267;27;19948;-76
2022/12/06 10:57:22;;;;;;;;;;;5.00;99.90;;;;;;5119458;27;20425;-75
2022/12/06 11:00:10;;;;;;;;;;;5.00;99.90;;;;;;5117477;27;20410;-75
2022/12/06 11:02:42;;;;;;;;;;;5.10;99.90;;;;;;5118419;27;19950;-75
2022/12/06 11:05:26;;;;;;;;;;;5.10;99.90;;;;;;5121813;27;19919;-74
2022/12/06 11:07:55;;;;;;;;;;;5.20;99.90;;;;;;5126443;27;20035;-75
2022/12/06 11:10:23;;;;;;;;;;;5.20;99.90;;;;;;5129671;27;20831;-76
2022/12/06 11:12:52;;;;;;;;;;;5.20;99.90;;;;;;5125318;27;20315;-74
2022/12/06 11:15:26;;;;;;;;;;;5.30;99.90;;;;;;5119644;27;20025;-76
2022/12/06 11:17:55;;;;;;;;;;;5.30;99.90;;;;;;5125963;27;20487;-75
2022/12/06 11:20:28;;;;;;;;;;;6.60;99.90;;;;;;5127821;27;20298;-74
2022/12/06 11:22:53;;;;;;;;;;;5.20;99.90;;;;;;5125545;27;19927;-75
2022/12/06 11:25:26;;;;;;;;;;;5.40;99.90;;;;;;5126805;27;19924;-74
2022/12/06 11:27:53;;;;;;;;;;;5.40;99.90;;;;;;5130472;27;19924;-74
2022/12/06 11:30:19;;;;;;;;;;;5.40;99.90;;;;;;5108597;27;19931;-74
2022/12/06 11:32:45;;;;;;;;;;;5.40;99.90;;;;;;5114380;28;19930;-74
2022/12/06 11:35:15;;;;;;;;;;;7.20;99.90;;;;;;5105828;28;20261;-74
2022/12/06 11:37:42;;;;;;;;;;;5.40;99.90;;;;;;5118520;28;19923;-73
2022/12/06 11:40:17;;;;;;;;;;;5.30;99.90;;;;;;5106257;28;20020;-74
2022/12/06 11:42:43;;;;;;;;;;;5.40;99.90;;;;;;5104018;28;19923;-74
2022/12/06 11:45:18;;;;;;;;;;;6.00;99.90;;;;;;5086148;28;20299;-76
2022/12/06 11:47:44;;;;;;;;;;;5.50;99.90;;;;;;5097303;28;20245;-73
2022/12/06 11:50:15;;;;;;;;;;;5.50;99.90;;;;;;5126886;28;20033;-74
2022/12/06 11:53:01;;;;;;;;;;;5.50;99.90;;;;;;5097737;28;20306;-74
2022/12/06 11:55:40;;;;;;;;;;;5.50;99.90;;;;;;5099659;28;19950;-75
2022/12/06 11:58:07;;;;;;;;;;;7.00;99.90;;;;;;5125180;28;19923;-74
2022/12/06 12:00:33;;;;;;;;;;;6.40;99.90;;;;;;5114485;28;19980;-74
2022/12/06 12:02:58;;;;;;;;;;;5.50;99.90;;;;;;5099491;28;20336;-73
2022/12/06 12:05:25;;;;;;;;;;;5.30;99.90;;;;;;5128109;28;20287;-76
2022/12/06 12:07:56;;;;;;;;;;;5.50;99.90;;;;;;5108066;28;20263;-74
2022/12/06 12:10:22;;;;;;;;;;;5.60;99.90;;;;;;5095365;28;19988;-74
2022/12/06 12:15:33;;;;;;;;;;;5.70;99.90;;;;;;5115009;28;20366;-74
2022/12/06 12:17:59;;;;;;;;;;;5.70;99.90;;;;;;5128516;27;19931;-74
2022/12/06 12:20:26;;;;;;;;;;;6.20;99.90;;;;;;5125720;27;20429;-74
2022/12/06 12:23:12;;;;;;;;;;;5.70;99.90;;;;;;5127774;27;19923;-74
2022/12/06 12:25:41;;;;;;;;;;;6.00;99.90;;;;;;5128055;27;19935;-74
2022/12/06 12:28:24;;;;;;;;;;;5.70;99.90;;;;;;5129988;27;19931;-74
2022/12/06 12:30:54;;;;;;;;;;;5.80;99.90;;;;;;5116721;27;19924;-74
2022/12/06 12:33:20;;;;;;;;;;;5.70;99.90;;;;;;5131744;27;19927;-75
2022/12/06 12:35:51;;;;;;;;;;;7.00;99.90;;;;;;5133812;27;19931;-74
2022/12/06 12:38:38;;;;;;;;;;;5.80;99.90;;;;;;5126977;27;19923;-74
2022/12/06 12:41:15;;;;;;;;;;;5.80;99.90;;;;;;5115221;27;19980;-74
2022/12/06 12:43:44;;;;;;;;;;;5.70;99.90;;;;;;5130119;27;20314;-74
2022/12/06 12:46:10;;;;;;;;;;;5.80;99.90;;;;;;5097728;27;19980;-76
2022/12/06 12:48:39;;;;;;;;;;;6.70;99.90;;;;;;5127252;27;19928;-75
2022/12/06 12:51:17;;;;;;;;;;;6.60;99.90;;;;;;5100135;27;20302;-74
2022/12/06 12:53:44;;;;;;;;;;;5.80;99.90;;;;;;5131233;27;20026;-75
2022/12/06 12:56:19;;;;;;;;;;;6.10;99.90;;;;;;5132266;27;20427;-74
2022/12/06 12:58:46;;;;;;;;;;;5.80;99.90;;;;;;5107109;27;20295;-75
2022/12/06 13:01:23;;;;;;;;;;;7.00;99.90;;;;;;5128784;27;19931;-75
2022/12/06 13:03:53;;;;;;;;;;;5.80;99.90;;;;;;5128569;27;19974;-75
2022/12/06 13:06:28;;;;;;;;;;;5.80;99.90;;;;;;5131008;27;19923;-74
2022/12/06 13:08:56;;;;;;;;;;;5.90;99.90;;;;;;5110935;27;19928;-74
2022/12/06 13:11:22;;;;;;;;;;;5.80;99.90;;;;;;5101719;27;19937;-74
2022/12/06 13:13:49;;;;;;;;;;;5.90;99.90;;;;;;5133432;27;20002;-74
2022/12/06 13:16:20;;;;;;;;;;;5.90;99.90;;;;;;5127748;27;20382;-74
2022/12/06 13:18:49;;;;;;;;;;;7.60;99.90;;;;;;5132808;27;19924;-72
2022/12/06 13:21:28;;;;;;;;;;;5.80;99.90;;;;;;5126711;27;20501;-73
2022/12/06 13:24:12;;;;;;;;;;;5.90;99.90;;;;;;5123686;27;20292;-73
2022/12/06 13:26:49;;;;;;;;;;;5.90;99.90;;;;;;5114547;27;20337;-72
2022/12/06 13:29:24;;;;;;;;;;;5.90;99.90;;;;;;5132597;27;19924;-73
2022/12/06 13:31:51;;;;;;;;;;;5.90;99.90;;;;;;5129272;27;20314;-74
2022/12/06 13:34:17;;;;;;;;;;;5.90;99.90;;;;;;5113596;27;19930;-73
2022/12/06 13:36:42;;;;;;;;;;;5.90;99.90;;;;;;5112124;27;19928;-73
2022/12/06 13:39:26;;;;;;;;;;;7.00;99.90;;;;;;5129571;27;20339;-74
2022/12/06 13:44:49;;;;;;;;;;;6.00;99.90;;;;;;5119118;27;19927;-74
2022/12/06 13:47:27;;;;;;;;;;;5.90;99.90;;;;;;5131299;27;19924;-73
2022/12/06 13:49:53;;;;;;;;;;;5.90;99.90;;;;;;5110913;28;19927;-74
2022/12/06 13:52:37;;;;;;;;;;;5.90;99.90;;;;;;5107930;27;19924;-75
2022/12/06 13:55:22;;;;;;;;;;;6.00;99.90;;;;;;5106187;27;19927;-73
2022/12/06 13:57:47;;;;;;;;;;;5.90;99.90;;;;;;5101800;27;19923;-74
2022/12/06 14:00:28;;;;;;;;;;;5.90;99.90;;;;;;5112924;27;19928;-74
2022/12/06 14:02:55;;;;;;;;;;;5.90;99.90;;;;;;5128041;27;20319;-75
2022/12/06 14:05:39;;;;;;;;;;;6.00;99.90;;;;;;5112776;27;19928;-74
2022/12/06 14:08:08;;;;;;;;;;;6.00;99.90;;;;;;5127287;27;19986;-75
2022/12/06 14:10:33;;;;;;;;;;;6.90;99.90;;;;;;5117752;27;19973;-74
2022/12/06 14:12:59;;;;;;;;;;;7.60;99.90;;;;;;5132307;27;19924;-75
2022/12/06 14:15:25;;;;;;;;;;;6.00;99.90;;;;;;5113171;27;19930;-74
2022/12/06 14:17:51;;;;;;;;;;;7.80;99.90;;;;;;5110185;27;19924;-73
2022/12/06 14:20:22;;;;;;;;;;;5.90;99.90;;;;;;5125256;27;20306;-75
2022/12/06 14:22:47;;;;;;;;;;;5.90;99.90;;;;;;5089532;28;19924;-74
2022/12/06 14:25:24;;;;;;;;;;;5.90;99.90;;;;;;5101926;27;19984;-74
2022/12/06 14:27:51;;;;;;;;;;;5.90;99.90;;;;;;5110189;27;19928;-74
2022/12/06 14:30:19;;;;;;;;;;;7.20;99.90;;;;;;5112707;27;19972;-74
2022/12/06 14:32:54;;;;;;;;;;;6.00;99.90;;;;;;5131668;27;19970;-73
2022/12/06 14:35:21;;;;;;;;;;;5.90;99.90;;;;;;5124766;27;19935;-74
2022/12/06 14:37:48;;;;;;;;;;;5.90;99.90;;;;;;5130089;27;19966;-74
2022/12/06 14:40:24;;;;;;;;;;;5.90;99.90;;;;;;5126415;27;19968;-73
2022/12/06 14:43:00;;;;;;;;;;;5.90;99.90;;;;;;5112912;27;20432;-73
2022/12/06 14:45:30;;;;;;;;;;;5.90;99.90;;;;;;5107729;27;20329;-73
2022/12/06 14:47:57;;;;;;;;;;;5.90;99.90;;;;;;5110984;27;19962;-73
2022/12/06 14:50:23;;;;;;;;;;;5.90;99.90;;;;;;5127257;27;19931;-73
2022/12/06 14:53:03;;;;;;;;;;;5.90;99.90;;;;;;5125825;27;19923;-73
2022/12/06 14:55:30;;;;;;;;;;;5.90;99.90;;;;;;5107829;27;19923;-72
2022/12/06 14:58:12;;;;;;;;;;;5.80;99.90;;;;;;5092708;28;20057;-73
2022/12/06 15:00:46;;;;;;;;;;;5.90;99.90;;;;;;5101835;28;19976;-72
2022/12/06 15:03:15;;;;;;;;;;;7.00;99.90;;;;;;5129647;27;19930;-74
2022/12/06 15:05:42;;;;;;;;;;;5.90;99.90;;;;;;5110052;27;19973;-73
2022/12/06 15:08:26;;;;;;;;;;;5.90;99.90;;;;;;5128361;27;19931;-73
2022/12/06 15:10:54;;;;;;;;;;;5.80;99.90;;;;;;5109097;27;19931;-73
2022/12/06 15:13:21;;;;;;;;;;;5.90;99.90;;;;;;5128053;27;19923;-73
2022/12/06 15:15:48;;;;;;;;;;;5.90;99.90;;;;;;5130871;27;20068;-73